sensor_id;sensor_type;location;lat;lon;timestamp;P1;durP1;ratioP1;P2;durP2;ratioP2
18610;SDS011;9435;52.122;5.502;2023-04-03T00:00:51;4.13;;;1.33;;
18610;SDS011;9435;52.122;5.502;2023-04-03T00:03:18;3.25;;;1.38;;
18610;SDS011;9435;52.122;5.502;2023-04-03T00:05:46;3.53;;;1.50;;
18610;SDS011;9435;52.122;5.502;2023-04-03T00:08:13;4.88;;;1.70;;
18610;SDS011;9435;52.122;5.502;2023-04-03T00:10:41;3.80;;;1.45;;
18610;SDS011;9435;52.122;5.502;2023-04-03T00:13:09;5.18;;;1.40;;
18610;SDS011;9435;52.122;5.502;2023-04-03T00:15:37;4.35;;;1.30;;
18610;SDS011;9435;52.122;5.502;2023-04-03T00:18:04;5.57;;;1.63;;
18610;SDS011;9435;52.122;5.502;2023-04-03T00:20:32;3.72;;;1.58;;
18610;SDS011;9435;52.122;5.502;2023-04-03T00:22:59;6.35;;;1.50;;
18610;SDS011;9435;52.122;5.502;2023-04-03T00:25:27;4.32;;;1.35;;
18610;SDS011;9435;52.122;5.502;2023-04-03T00:27:56;2.65;;;1.38;;
18610;SDS011;9435;52.122;5.502;2023-04-03T00:30:23;3.47;;;1.58;;
18610;SDS011;9435;52.122;5.502;2023-04-03T00:32:51;3.20;;;1.60;;
18610;SDS011;9435;52.122;5.502;2023-04-03T00:35:19;4.20;;;1.55;;
18610;SDS011;9435;52.122;5.502;2023-04-03T00:37:47;6.72;;;1.58;;
18610;SDS011;9435;52.122;5.502;2023-04-03T00:40:14;3.58;;;1.45;;
18610;SDS011;9435;52.122;5.502;2023-04-03T00:42:42;4.43;;;1.48;;
18610;SDS011;9435;52.122;5.502;2023-04-03T00:45:29;4.13;;;1.58;;
18610;SDS011;9435;52.122;5.502;2023-04-03T00:47:59;6.30;;;1.70;;
18610;SDS011;9435;52.122;5.502;2023-04-03T00:50:28;6.30;;;1.67;;
18610;SDS011;9435;52.122;5.502;2023-04-03T00:52:56;5.90;;;1.60;;
18610;SDS011;9435;52.122;5.502;2023-04-03T00:55:24;8.25;;;2.00;;
18610;SDS011;9435;52.122;5.502;2023-04-03T00:57:51;4.75;;;1.70;;
18610;SDS011;9435;52.122;5.502;2023-04-03T01:00:20;3.55;;;1.90;;
18610;SDS011;9435;52.122;5.502;2023-04-03T01:02:50;4.25;;;1.88;;
18610;SDS011;9435;52.122;5.502;2023-04-03T01:05:17;3.72;;;1.80;;
18610;SDS011;9435;52.122;5.502;2023-04-03T01:07:46;7.45;;;1.77;;
18610;SDS011;9435;52.122;5.502;2023-04-03T01:10:14;5.47;;;1.58;;
18610;SDS011;9435;52.122;5.502;2023-04-03T01:12:45;3.67;;;1.83;;
18610;SDS011;9435;52.122;5.502;2023-04-03T01:15:15;5.75;;;1.88;;
18610;SDS011;9435;52.122;5.502;2023-04-03T01:17:43;4.82;;;1.63;;
18610;SDS011;9435;52.122;5.502;2023-04-03T01:23:39;5.57;;;2.00;;
18610;SDS011;9435;52.122;5.502;2023-04-03T01:26:13;6.30;;;2.10;;
18610;SDS011;9435;52.122;5.502;2023-04-03T01:28:40;5.72;;;1.88;;
18610;SDS011;9435;52.122;5.502;2023-04-03T01:31:10;6.25;;;1.92;;
18610;SDS011;9435;52.122;5.502;2023-04-03T01:33:46;4.10;;;1.77;;
18610;SDS011;9435;52.122;5.502;2023-04-03T01:36:17;6.65;;;1.98;;
18610;SDS011;9435;52.122;5.502;2023-04-03T01:38:46;6.88;;;2.20;;
18610;SDS011;9435;52.122;5.502;2023-04-03T01:41:13;5.40;;;1.88;;
18610;SDS011;9435;52.122;5.502;2023-04-03T01:43:41;6.70;;;2.05;;
18610;SDS011;9435;52.122;5.502;2023-04-03T01:46:08;4.93;;;1.80;;
18610;SDS011;9435;52.122;5.502;2023-04-03T01:48:35;5.90;;;2.08;;
18610;SDS011;9435;52.122;5.502;2023-04-03T01:51:04;4.72;;;1.80;;
18610;SDS011;9435;52.122;5.502;2023-04-03T01:53:31;4.13;;;1.63;;
18610;SDS011;9435;52.122;5.502;2023-04-03T01:55:58;5.57;;;1.80;;
18610;SDS011;9435;52.122;5.502;2023-04-03T01:58:25;5.95;;;1.90;;
18610;SDS011;9435;52.122;5.502;2023-04-03T02:00:52;6.03;;;2.00;;
18610;SDS011;9435;52.122;5.502;2023-04-03T02:03:19;5.90;;;2.00;;
18610;SDS011;9435;52.122;5.502;2023-04-03T02:05:46;6.55;;;2.10;;
18610;SDS011;9435;52.122;5.502;2023-04-03T02:08:15;5.45;;;1.80;;
18610;SDS011;9435;52.122;5.502;2023-04-03T02:10:43;6.85;;;2.00;;
18610;SDS011;9435;52.122;5.502;2023-04-03T02:13:11;5.10;;;1.80;;
18610;SDS011;9435;52.122;5.502;2023-04-03T02:15:38;4.45;;;2.00;;
18610;SDS011;9435;52.122;5.502;2023-04-03T02:18:05;7.95;;;1.98;;
18610;SDS011;9435;52.122;5.502;2023-04-03T02:20:32;5.60;;;1.92;;
18610;SDS011;9435;52.122;5.502;2023-04-03T02:23:00;7.13;;;1.90;;
18610;SDS011;9435;52.122;5.502;2023-04-03T02:25:29;5.07;;;1.85;;
18610;SDS011;9435;52.122;5.502;2023-04-03T02:27:57;3.70;;;1.80;;
18610;SDS011;9435;52.122;5.502;2023-04-03T02:30:24;3.80;;;2.17;;
18610;SDS011;9435;52.122;5.502;2023-04-03T02:32:51;7.28;;;2.30;;
18610;SDS011;9435;52.122;5.502;2023-04-03T02:35:18;6.57;;;2.20;;
18610;SDS011;9435;52.122;5.502;2023-04-03T02:37:45;9.75;;;2.60;;
18610;SDS011;9435;52.122;5.502;2023-04-03T02:40:12;5.43;;;2.10;;
18610;SDS011;9435;52.122;5.502;2023-04-03T02:42:41;6.68;;;2.30;;
18610;SDS011;9435;52.122;5.502;2023-04-03T02:45:08;8.20;;;2.28;;
18610;SDS011;9435;52.122;5.502;2023-04-03T02:47:36;5.72;;;2.30;;
18610;SDS011;9435;52.122;5.502;2023-04-03T02:50:03;6.68;;;2.35;;
18610;SDS011;9435;52.122;5.502;2023-04-03T02:52:30;4.88;;;2.13;;
18610;SDS011;9435;52.122;5.502;2023-04-03T02:54:58;6.03;;;2.08;;
18610;SDS011;9435;52.122;5.502;2023-04-03T02:57:25;6.45;;;2.30;;
18610;SDS011;9435;52.122;5.502;2023-04-03T02:59:53;6.55;;;2.25;;
18610;SDS011;9435;52.122;5.502;2023-04-03T03:02:20;5.47;;;2.30;;
18610;SDS011;9435;52.122;5.502;2023-04-03T03:04:47;5.82;;;2.28;;
18610;SDS011;9435;52.122;5.502;2023-04-03T03:07:14;8.30;;;2.33;;
18610;SDS011;9435;52.122;5.502;2023-04-03T03:09:41;7.28;;;2.40;;
18610;SDS011;9435;52.122;5.502;2023-04-03T03:12:08;5.95;;;2.20;;
18610;SDS011;9435;52.122;5.502;2023-04-03T03:14:35;8.10;;;2.60;;
18610;SDS011;9435;52.122;5.502;2023-04-03T03:17:04;5.13;;;2.20;;
18610;SDS011;9435;52.122;5.502;2023-04-03T03:19:31;6.25;;;2.65;;
18610;SDS011;9435;52.122;5.502;2023-04-03T03:21:58;8.55;;;2.55;;
18610;SDS011;9435;52.122;5.502;2023-04-03T03:24:25;8.07;;;2.50;;
18610;SDS011;9435;52.122;5.502;2023-04-03T03:26:52;4.85;;;2.13;;
18610;SDS011;9435;52.122;5.502;2023-04-03T03:29:19;9.88;;;2.58;;
18610;SDS011;9435;52.122;5.502;2023-04-03T03:31:46;7.65;;;2.40;;
18610;SDS011;9435;52.122;5.502;2023-04-03T03:34:15;6.90;;;2.17;;
18610;SDS011;9435;52.122;5.502;2023-04-03T03:36:42;6.78;;;2.42;;
18610;SDS011;9435;52.122;5.502;2023-04-03T03:39:09;6.60;;;2.67;;
18610;SDS011;9435;52.122;5.502;2023-04-03T03:41:37;9.27;;;2.78;;
18610;SDS011;9435;52.122;5.502;2023-04-03T03:44:04;6.70;;;2.50;;
18610;SDS011;9435;52.122;5.502;2023-04-03T03:46:31;10.70;;;2.67;;
18610;SDS011;9435;52.122;5.502;2023-04-03T03:48:58;9.35;;;2.80;;
18610;SDS011;9435;52.122;5.502;2023-04-03T03:51:26;12.63;;;2.55;;
18610;SDS011;9435;52.122;5.502;2023-04-03T03:53:53;6.93;;;2.40;;
18610;SDS011;9435;52.122;5.502;2023-04-03T03:56:20;6.25;;;2.20;;
18610;SDS011;9435;52.122;5.502;2023-04-03T03:58:48;7.97;;;2.50;;
18610;SDS011;9435;52.122;5.502;2023-04-03T04:01:15;7.15;;;2.60;;
18610;SDS011;9435;52.122;5.502;2023-04-03T04:03:43;8.38;;;2.58;;
18610;SDS011;9435;52.122;5.502;2023-04-03T04:06:10;8.40;;;2.83;;
18610;SDS011;9435;52.122;5.502;2023-04-03T04:08:38;11.18;;;3.15;;
18610;SDS011;9435;52.122;5.502;2023-04-03T04:11:05;9.18;;;2.78;;
18610;SDS011;9435;52.122;5.502;2023-04-03T04:13:34;10.00;;;3.00;;
18610;SDS011;9435;52.122;5.502;2023-04-03T04:16:07;9.20;;;2.80;;
18610;SDS011;9435;52.122;5.502;2023-04-03T04:18:35;14.15;;;3.08;;
18610;SDS011;9435;52.122;5.502;2023-04-03T04:21:02;9.27;;;2.60;;
18610;SDS011;9435;52.122;5.502;2023-04-03T04:23:29;7.22;;;2.90;;
18610;SDS011;9435;52.122;5.502;2023-04-03T04:25:57;7.80;;;2.90;;
18610;SDS011;9435;52.122;5.502;2023-04-03T04:28:24;9.38;;;2.95;;
18610;SDS011;9435;52.122;5.502;2023-04-03T04:30:52;7.00;;;2.60;;
18610;SDS011;9435;52.122;5.502;2023-04-03T04:33:19;7.65;;;2.85;;
18610;SDS011;9435;52.122;5.502;2023-04-03T04:35:46;10.73;;;2.97;;
18610;SDS011;9435;52.122;5.502;2023-04-03T04:38:14;9.60;;;2.90;;
18610;SDS011;9435;52.122;5.502;2023-04-03T04:40:41;8.60;;;3.08;;
18610;SDS011;9435;52.122;5.502;2023-04-03T04:43:09;9.75;;;2.72;;
18610;SDS011;9435;52.122;5.502;2023-04-03T04:45:39;10.13;;;2.88;;
18610;SDS011;9435;52.122;5.502;2023-04-03T04:48:06;11.23;;;3.05;;
18610;SDS011;9435;52.122;5.502;2023-04-03T04:50:34;8.90;;;2.72;;
18610;SDS011;9435;52.122;5.502;2023-04-03T04:53:01;10.05;;;3.13;;
18610;SDS011;9435;52.122;5.502;2023-04-03T04:55:29;9.73;;;2.90;;
18610;SDS011;9435;52.122;5.502;2023-04-03T04:57:56;6.78;;;2.95;;
18610;SDS011;9435;52.122;5.502;2023-04-03T05:00:24;11.80;;;3.08;;
18610;SDS011;9435;52.122;5.502;2023-04-03T05:02:51;11.07;;;2.90;;
18610;SDS011;9435;52.122;5.502;2023-04-03T05:05:18;11.35;;;3.13;;
18610;SDS011;9435;52.122;5.502;2023-04-03T05:07:45;7.57;;;2.88;;
18610;SDS011;9435;52.122;5.502;2023-04-03T05:10:12;10.10;;;3.00;;
18610;SDS011;9435;52.122;5.502;2023-04-03T05:12:39;8.77;;;2.80;;
18610;SDS011;9435;52.122;5.502;2023-04-03T05:15:07;9.02;;;2.67;;
18610;SDS011;9435;52.122;5.502;2023-04-03T05:17:36;11.82;;;3.40;;
18610;SDS011;9435;52.122;5.502;2023-04-03T05:20:03;9.85;;;3.00;;
18610;SDS011;9435;52.122;5.502;2023-04-03T05:22:31;9.07;;;3.08;;
18610;SDS011;9435;52.122;5.502;2023-04-03T05:24:58;10.95;;;2.90;;
18610;SDS011;9435;52.122;5.502;2023-04-03T05:27:26;8.93;;;2.63;;
18610;SDS011;9435;52.122;5.502;2023-04-03T05:29:54;8.57;;;2.58;;
18610;SDS011;9435;52.122;5.502;2023-04-03T05:32:21;9.18;;;3.13;;
18610;SDS011;9435;52.122;5.502;2023-04-03T05:34:50;6.75;;;2.85;;
18610;SDS011;9435;52.122;5.502;2023-04-03T05:37:17;8.05;;;3.10;;
18610;SDS011;9435;52.122;5.502;2023-04-03T05:39:44;13.10;;;3.05;;
18610;SDS011;9435;52.122;5.502;2023-04-03T05:42:12;11.65;;;2.83;;
18610;SDS011;9435;52.122;5.502;2023-04-03T05:44:40;7.03;;;2.80;;
18610;SDS011;9435;52.122;5.502;2023-04-03T05:47:07;6.97;;;2.90;;
18610;SDS011;9435;52.122;5.502;2023-04-03T05:49:34;8.25;;;2.90;;
18610;SDS011;9435;52.122;5.502;2023-04-03T05:52:08;14.82;;;3.10;;
18610;SDS011;9435;52.122;5.502;2023-04-03T05:54:43;9.48;;;2.88;;
18610;SDS011;9435;52.122;5.502;2023-04-03T05:57:13;9.70;;;2.88;;
18610;SDS011;9435;52.122;5.502;2023-04-03T05:59:41;9.27;;;2.67;;
18610;SDS011;9435;52.122;5.502;2023-04-03T06:02:09;9.90;;;3.00;;
18610;SDS011;9435;52.122;5.502;2023-04-03T06:04:37;9.48;;;3.10;;
18610;SDS011;9435;52.122;5.502;2023-04-03T06:07:04;11.80;;;3.05;;
18610;SDS011;9435;52.122;5.502;2023-04-03T06:09:33;8.82;;;2.75;;
18610;SDS011;9435;52.122;5.502;2023-04-03T06:12:00;9.63;;;2.95;;
18610;SDS011;9435;52.122;5.502;2023-04-03T06:14:27;11.48;;;3.10;;
18610;SDS011;9435;52.122;5.502;2023-04-03T06:16:54;11.05;;;3.00;;
18610;SDS011;9435;52.122;5.502;2023-04-03T06:19:22;6.85;;;2.53;;
18610;SDS011;9435;52.122;5.502;2023-04-03T06:21:49;7.65;;;2.40;;
18610;SDS011;9435;52.122;5.502;2023-04-03T06:24:18;10.32;;;3.05;;
18610;SDS011;9435;52.122;5.502;2023-04-03T06:26:47;9.13;;;2.90;;
18610;SDS011;9435;52.122;5.502;2023-04-03T06:29:16;13.23;;;3.03;;
18610;SDS011;9435;52.122;5.502;2023-04-03T06:31:43;7.72;;;2.85;;
18610;SDS011;9435;52.122;5.502;2023-04-03T06:34:10;8.18;;;2.85;;
18610;SDS011;9435;52.122;5.502;2023-04-03T06:36:38;8.95;;;2.83;;
18610;SDS011;9435;52.122;5.502;2023-04-03T06:39:06;7.32;;;2.83;;
18610;SDS011;9435;52.122;5.502;2023-04-03T06:41:34;9.15;;;2.75;;
18610;SDS011;9435;52.122;5.502;2023-04-03T06:44:01;10.15;;;2.40;;
18610;SDS011;9435;52.122;5.502;2023-04-03T06:46:29;7.95;;;2.58;;
18610;SDS011;9435;52.122;5.502;2023-04-03T06:48:56;9.13;;;2.90;;
18610;SDS011;9435;52.122;5.502;2023-04-03T06:51:23;6.95;;;2.60;;
18610;SDS011;9435;52.122;5.502;2023-04-03T06:53:52;8.48;;;2.55;;
18610;SDS011;9435;52.122;5.502;2023-04-03T06:56:20;6.43;;;2.40;;
18610;SDS011;9435;52.122;5.502;2023-04-03T06:58:48;5.35;;;2.13;;
18610;SDS011;9435;52.122;5.502;2023-04-03T07:01:17;6.97;;;2.53;;
18610;SDS011;9435;52.122;5.502;2023-04-03T07:03:45;7.20;;;2.55;;
18610;SDS011;9435;52.122;5.502;2023-04-03T07:06:13;6.35;;;2.13;;
18610;SDS011;9435;52.122;5.502;2023-04-03T07:08:41;7.75;;;2.22;;
18610;SDS011;9435;52.122;5.502;2023-04-03T07:11:09;7.78;;;2.08;;
18610;SDS011;9435;52.122;5.502;2023-04-03T07:13:37;7.03;;;2.17;;
18610;SDS011;9435;52.122;5.502;2023-04-03T07:16:07;7.80;;;2.42;;
18610;SDS011;9435;52.122;5.502;2023-04-03T07:18:35;7.22;;;2.15;;
18610;SDS011;9435;52.122;5.502;2023-04-03T07:21:02;8.73;;;1.90;;
18610;SDS011;9435;52.122;5.502;2023-04-03T07:23:30;6.55;;;2.30;;
18610;SDS011;9435;52.122;5.502;2023-04-03T07:25:57;8.98;;;2.22;;
18610;SDS011;9435;52.122;5.502;2023-04-03T07:28:24;5.70;;;2.05;;
18610;SDS011;9435;52.122;5.502;2023-04-03T07:30:52;8.35;;;2.22;;
18610;SDS011;9435;52.122;5.502;2023-04-03T07:33:21;6.80;;;2.25;;
18610;SDS011;9435;52.122;5.502;2023-04-03T07:35:49;6.72;;;1.90;;
18610;SDS011;9435;52.122;5.502;2023-04-03T07:38:16;5.22;;;1.83;;
18610;SDS011;9435;52.122;5.502;2023-04-03T07:40:45;8.27;;;2.15;;
18610;SDS011;9435;52.122;5.502;2023-04-03T07:43:13;4.38;;;1.80;;
18610;SDS011;9435;52.122;5.502;2023-04-03T07:45:40;6.68;;;1.70;;
18610;SDS011;9435;52.122;5.502;2023-04-03T07:48:08;3.90;;;1.90;;
18610;SDS011;9435;52.122;5.502;2023-04-03T07:50:39;6.80;;;2.05;;
18610;SDS011;9435;52.122;5.502;2023-04-03T07:53:06;8.98;;;1.88;;
18610;SDS011;9435;52.122;5.502;2023-04-03T07:55:34;10.45;;;1.80;;
18610;SDS011;9435;52.122;5.502;2023-04-03T07:58:07;3.88;;;1.67;;
18610;SDS011;9435;52.122;5.502;2023-04-03T08:00:35;5.63;;;1.90;;
18610;SDS011;9435;52.122;5.502;2023-04-03T08:03:03;7.22;;;1.85;;
18610;SDS011;9435;52.122;5.502;2023-04-03T08:05:30;3.47;;;1.42;;
18610;SDS011;9435;52.122;5.502;2023-04-03T08:07:59;4.03;;;1.63;;
18610;SDS011;9435;52.122;5.502;2023-04-03T08:10:26;5.47;;;1.58;;
18610;SDS011;9435;52.122;5.502;2023-04-03T08:12:55;3.17;;;1.30;;
18610;SDS011;9435;52.122;5.502;2023-04-03T08:15:22;6.13;;;1.35;;
18610;SDS011;9435;52.122;5.502;2023-04-03T08:17:49;7.55;;;1.63;;
18610;SDS011;9435;52.122;5.502;2023-04-03T08:20:17;4.32;;;1.40;;
18610;SDS011;9435;52.122;5.502;2023-04-03T08:22:44;5.13;;;1.27;;
18610;SDS011;9435;52.122;5.502;2023-04-03T08:25:13;4.22;;;1.30;;
18610;SDS011;9435;52.122;5.502;2023-04-03T08:27:40;4.47;;;1.30;;
18610;SDS011;9435;52.122;5.502;2023-04-03T08:30:07;7.85;;;1.35;;
18610;SDS011;9435;52.122;5.502;2023-04-03T08:32:35;4.65;;;1.30;;
18610;SDS011;9435;52.122;5.502;2023-04-03T08:35:03;3.60;;;1.20;;
18610;SDS011;9435;52.122;5.502;2023-04-03T08:37:30;4.35;;;0.90;;
18610;SDS011;9435;52.122;5.502;2023-04-03T08:40:01;2.28;;;1.00;;
18610;SDS011;9435;52.122;5.502;2023-04-03T08:42:33;4.25;;;1.13;;
18610;SDS011;9435;52.122;5.502;2023-04-03T08:45:10;2.72;;;0.90;;
18610;SDS011;9435;52.122;5.502;2023-04-03T08:47:42;2.80;;;0.90;;
18610;SDS011;9435;52.122;5.502;2023-04-03T08:50:18;3.75;;;1.00;;
18610;SDS011;9435;52.122;5.502;2023-04-03T08:52:57;2.78;;;0.90;;
18610;SDS011;9435;52.122;5.502;2023-04-03T08:55:25;4.32;;;0.70;;
18610;SDS011;9435;52.122;5.502;2023-04-03T08:57:59;5.18;;;0.80;;
18610;SDS011;9435;52.122;5.502;2023-04-03T09:00:28;2.88;;;0.80;;
18610;SDS011;9435;52.122;5.502;2023-04-03T09:03:00;2.25;;;0.70;;
18610;SDS011;9435;52.122;5.502;2023-04-03T09:05:31;2.03;;;0.70;;
18610;SDS011;9435;52.122;5.502;2023-04-03T09:08:09;2.22;;;0.75;;
18610;SDS011;9435;52.122;5.502;2023-04-03T09:10:45;2.50;;;0.57;;
18610;SDS011;9435;52.122;5.502;2023-04-03T09:13:17;1.38;;;0.70;;
18610;SDS011;9435;52.122;5.502;2023-04-03T09:15:51;1.23;;;0.40;;
18610;SDS011;9435;52.122;5.502;2023-04-03T09:18:19;2.90;;;0.43;;
18610;SDS011;9435;52.122;5.502;2023-04-03T09:20:52;1.38;;;0.50;;
18610;SDS011;9435;52.122;5.502;2023-04-03T09:23:26;1.38;;;0.50;;
18610;SDS011;9435;52.122;5.502;2023-04-03T09:25:58;1.88;;;0.60;;
18610;SDS011;9435;52.122;5.502;2023-04-03T09:28:32;2.75;;;0.70;;
18610;SDS011;9435;52.122;5.502;2023-04-03T09:31:05;2.63;;;0.55;;
18610;SDS011;9435;52.122;5.502;2023-04-03T09:33:44;2.28;;;0.50;;
18610;SDS011;9435;52.122;5.502;2023-04-03T09:36:12;0.82;;;0.47;;
18610;SDS011;9435;52.122;5.502;2023-04-03T09:38:40;0.98;;;0.40;;
18610;SDS011;9435;52.122;5.502;2023-04-03T09:41:07;1.50;;;0.50;;
18610;SDS011;9435;52.122;5.502;2023-04-03T09:43:51;1.05;;;0.40;;
18610;SDS011;9435;52.122;5.502;2023-04-03T09:46:24;1.33;;;0.40;;
18610;SDS011;9435;52.122;5.502;2023-04-03T09:48:55;0.93;;;0.30;;
18610;SDS011;9435;52.122;5.502;2023-04-03T09:51:24;0.93;;;0.40;;
18610;SDS011;9435;52.122;5.502;2023-04-03T09:53:52;0.82;;;0.30;;
18610;SDS011;9435;52.122;5.502;2023-04-03T09:56:21;1.85;;;0.55;;
18610;SDS011;9435;52.122;5.502;2023-04-03T09:58:53;1.42;;;0.45;;
18610;SDS011;9435;52.122;5.502;2023-04-03T10:01:39;2.55;;;0.50;;
18610;SDS011;9435;52.122;5.502;2023-04-03T10:04:09;1.30;;;0.50;;
18610;SDS011;9435;52.122;5.502;2023-04-03T10:06:38;0.98;;;0.35;;
18610;SDS011;9435;52.122;5.502;2023-04-03T10:09:15;1.27;;;0.40;;
18610;SDS011;9435;52.122;5.502;2023-04-03T10:12:01;1.02;;;0.50;;
18610;SDS011;9435;52.122;5.502;2023-04-03T10:14:32;2.25;;;0.50;;
18610;SDS011;9435;52.122;5.502;2023-04-03T10:19:50;1.58;;;0.30;;
18610;SDS011;9435;52.122;5.502;2023-04-03T10:22:25;1.73;;;0.50;;
18610;SDS011;9435;52.122;5.502;2023-04-03T10:25:04;1.40;;;0.40;;
18610;SDS011;9435;52.122;5.502;2023-04-03T10:27:42;1.50;;;0.50;;
18610;SDS011;9435;52.122;5.502;2023-04-03T10:30:27;1.15;;;0.40;;
18610;SDS011;9435;52.122;5.502;2023-04-03T10:33:05;3.20;;;0.50;;
18610;SDS011;9435;52.122;5.502;2023-04-03T10:35:51;3.03;;;0.50;;
18610;SDS011;9435;52.122;5.502;2023-04-03T10:38:31;1.40;;;0.50;;
18610;SDS011;9435;52.122;5.502;2023-04-03T10:41:04;4.00;;;0.57;;
18610;SDS011;9435;52.122;5.502;2023-04-03T10:43:39;1.05;;;0.50;;
18610;SDS011;9435;52.122;5.502;2023-04-03T10:46:20;3.13;;;0.60;;
18610;SDS011;9435;52.122;5.502;2023-04-03T10:48:56;2.05;;;0.40;;
18610;SDS011;9435;52.122;5.502;2023-04-03T10:51:36;1.05;;;0.40;;
18610;SDS011;9435;52.122;5.502;2023-04-03T10:54:11;2.20;;;0.55;;
18610;SDS011;9435;52.122;5.502;2023-04-03T10:56:43;2.15;;;0.40;;
18610;SDS011;9435;52.122;5.502;2023-04-03T10:59:16;2.08;;;0.63;;
18610;SDS011;9435;52.122;5.502;2023-04-03T11:01:49;1.17;;;0.55;;
18610;SDS011;9435;52.122;5.502;2023-04-03T11:04:20;2.58;;;0.52;;
18610;SDS011;9435;52.122;5.502;2023-04-03T11:06:50;2.17;;;0.60;;
18610;SDS011;9435;52.122;5.502;2023-04-03T11:09:22;2.42;;;0.57;;
18610;SDS011;9435;52.122;5.502;2023-04-03T11:11:53;2.53;;;0.55;;
18610;SDS011;9435;52.122;5.502;2023-04-03T11:14:27;2.13;;;0.65;;
18610;SDS011;9435;52.122;5.502;2023-04-03T11:17:01;3.65;;;0.65;;
18610;SDS011;9435;52.122;5.502;2023-04-03T11:19:38;2.50;;;0.60;;
18610;SDS011;9435;52.122;5.502;2023-04-03T11:22:08;3.55;;;0.70;;
18610;SDS011;9435;52.122;5.502;2023-04-03T11:24:42;3.60;;;0.57;;
18610;SDS011;9435;52.122;5.502;2023-04-03T11:27:22;2.30;;;0.70;;
18610;SDS011;9435;52.122;5.502;2023-04-03T11:29:51;2.95;;;0.57;;
18610;SDS011;9435;52.122;5.502;2023-04-03T11:32:36;4.25;;;0.50;;
18610;SDS011;9435;52.122;5.502;2023-04-03T11:35:21;1.35;;;0.60;;
18610;SDS011;9435;52.122;5.502;2023-04-03T11:37:50;2.20;;;0.60;;
18610;SDS011;9435;52.122;5.502;2023-04-03T11:40:20;1.98;;;0.60;;
18610;SDS011;9435;52.122;5.502;2023-04-03T11:42:52;1.98;;;0.70;;
18610;SDS011;9435;52.122;5.502;2023-04-03T11:45:35;1.27;;;0.60;;
18610;SDS011;9435;52.122;5.502;2023-04-03T11:48:06;1.48;;;0.45;;
18610;SDS011;9435;52.122;5.502;2023-04-03T11:50:53;4.13;;;0.75;;
18610;SDS011;9435;52.122;5.502;2023-04-03T11:53:34;1.75;;;0.60;;
18610;SDS011;9435;52.122;5.502;2023-04-03T11:56:03;4.15;;;0.70;;
18610;SDS011;9435;52.122;5.502;2023-04-03T12:01:49;1.80;;;0.50;;
18610;SDS011;9435;52.122;5.502;2023-04-03T12:04:19;1.55;;;0.60;;
18610;SDS011;9435;52.122;5.502;2023-04-03T12:12:41;1.30;;;0.52;;
18610;SDS011;9435;52.122;5.502;2023-04-03T12:15:17;3.72;;;0.80;;
18610;SDS011;9435;52.122;5.502;2023-04-03T12:17:51;2.13;;;0.60;;
18610;SDS011;9435;52.122;5.502;2023-04-03T12:23:27;3.03;;;0.70;;
18610;SDS011;9435;52.122;5.502;2023-04-03T12:26:00;3.88;;;1.00;;
18610;SDS011;9435;52.122;5.502;2023-04-03T12:28:34;2.67;;;0.80;;
18610;SDS011;9435;52.122;5.502;2023-04-03T12:31:04;3.10;;;0.80;;
18610;SDS011;9435;52.122;5.502;2023-04-03T12:33:37;3.08;;;0.73;;
18610;SDS011;9435;52.122;5.502;2023-04-03T12:36:15;2.05;;;0.75;;
18610;SDS011;9435;52.122;5.502;2023-04-03T12:38:57;2.15;;;0.70;;
18610;SDS011;9435;52.122;5.502;2023-04-03T12:41:33;2.60;;;0.70;;
18610;SDS011;9435;52.122;5.502;2023-04-03T12:47:08;2.83;;;0.73;;
18610;SDS011;9435;52.122;5.502;2023-04-03T12:49:49;1.80;;;0.73;;
18610;SDS011;9435;52.122;5.502;2023-04-03T12:52:17;3.00;;;0.85;;
18610;SDS011;9435;52.122;5.502;2023-04-03T12:54:51;2.05;;;0.80;;
18610;SDS011;9435;52.122;5.502;2023-04-03T12:57:20;2.90;;;0.90;;
18610;SDS011;9435;52.122;5.502;2023-04-03T12:59:49;1.95;;;0.75;;
18610;SDS011;9435;52.122;5.502;2023-04-03T13:02:20;3.30;;;0.90;;
18610;SDS011;9435;52.122;5.502;2023-04-03T13:04:49;2.45;;;0.85;;
18610;SDS011;9435;52.122;5.502;2023-04-03T13:07:18;2.92;;;1.00;;
18610;SDS011;9435;52.122;5.502;2023-04-03T13:09:57;3.15;;;1.00;;
18610;SDS011;9435;52.122;5.502;2023-04-03T13:12:25;2.35;;;0.90;;
18610;SDS011;9435;52.122;5.502;2023-04-03T13:14:53;3.03;;;0.80;;
18610;SDS011;9435;52.122;5.502;2023-04-03T13:17:23;2.88;;;0.95;;
18610;SDS011;9435;52.122;5.502;2023-04-03T13:19:50;2.13;;;0.90;;
18610;SDS011;9435;52.122;5.502;2023-04-03T13:22:24;1.77;;;0.90;;
18610;SDS011;9435;52.122;5.502;2023-04-03T13:24:58;2.85;;;1.08;;
18610;SDS011;9435;52.122;5.502;2023-04-03T13:27:28;3.33;;;0.80;;
18610;SDS011;9435;52.122;5.502;2023-04-03T13:29:57;2.45;;;0.82;;
18610;SDS011;9435;52.122;5.502;2023-04-03T13:32:28;4.00;;;0.88;;
18610;SDS011;9435;52.122;5.502;2023-04-03T13:34:58;3.55;;;0.85;;
18610;SDS011;9435;52.122;5.502;2023-04-03T13:37:26;3.33;;;1.20;;
18610;SDS011;9435;52.122;5.502;2023-04-03T13:40:02;2.20;;;0.80;;
18610;SDS011;9435;52.122;5.502;2023-04-03T13:42:36;3.00;;;1.02;;
18610;SDS011;9435;52.122;5.502;2023-04-03T13:45:09;2.55;;;0.90;;
18610;SDS011;9435;52.122;5.502;2023-04-03T13:47:45;1.40;;;0.80;;
18610;SDS011;9435;52.122;5.502;2023-04-03T13:50:14;2.97;;;1.00;;
18610;SDS011;9435;52.122;5.502;2023-04-03T13:52:43;5.25;;;0.98;;
18610;SDS011;9435;52.122;5.502;2023-04-03T13:55:20;1.95;;;0.75;;
18610;SDS011;9435;52.122;5.502;2023-04-03T13:57:54;2.80;;;0.90;;
18610;SDS011;9435;52.122;5.502;2023-04-03T14:00:31;2.63;;;1.00;;
18610;SDS011;9435;52.122;5.502;2023-04-03T14:03:03;4.15;;;1.10;;
18610;SDS011;9435;52.122;5.502;2023-04-03T14:05:39;2.78;;;1.05;;
18610;SDS011;9435;52.122;5.502;2023-04-03T14:08:06;3.13;;;1.00;;
18610;SDS011;9435;52.122;5.502;2023-04-03T14:10:36;4.10;;;1.02;;
18610;SDS011;9435;52.122;5.502;2023-04-03T14:13:03;4.18;;;0.95;;
18610;SDS011;9435;52.122;5.502;2023-04-03T14:15:31;2.75;;;1.10;;
18610;SDS011;9435;52.122;5.502;2023-04-03T14:17:58;2.72;;;1.00;;
18610;SDS011;9435;52.122;5.502;2023-04-03T14:20:26;2.55;;;0.82;;
18610;SDS011;9435;52.122;5.502;2023-04-03T14:22:53;3.10;;;0.80;;
18610;SDS011;9435;52.122;5.502;2023-04-03T14:25:21;4.13;;;1.10;;
18610;SDS011;9435;52.122;5.502;2023-04-03T14:27:52;2.30;;;1.02;;
18610;SDS011;9435;52.122;5.502;2023-04-03T14:30:22;4.07;;;0.90;;
18610;SDS011;9435;52.122;5.502;2023-04-03T14:32:50;4.18;;;1.10;;
18610;SDS011;9435;52.122;5.502;2023-04-03T14:35:18;2.22;;;1.05;;
18610;SDS011;9435;52.122;5.502;2023-04-03T14:37:46;4.20;;;0.98;;
18610;SDS011;9435;52.122;5.502;2023-04-03T14:40:15;5.68;;;1.33;;
18610;SDS011;9435;52.122;5.502;2023-04-03T14:42:44;7.50;;;1.40;;
18610;SDS011;9435;52.122;5.502;2023-04-03T14:45:13;4.93;;;1.42;;
18610;SDS011;9435;52.122;5.502;2023-04-03T14:47:42;6.07;;;1.30;;
18610;SDS011;9435;52.122;5.502;2023-04-03T14:50:14;4.90;;;1.50;;
18610;SDS011;9435;52.122;5.502;2023-04-03T14:52:43;4.53;;;1.48;;
18610;SDS011;9435;52.122;5.502;2023-04-03T14:55:12;4.50;;;1.17;;
18610;SDS011;9435;52.122;5.502;2023-04-03T14:57:40;5.63;;;1.23;;
18610;SDS011;9435;52.122;5.502;2023-04-03T15:00:11;4.28;;;1.40;;
18610;SDS011;9435;52.122;5.502;2023-04-03T15:02:42;3.45;;;1.20;;
18610;SDS011;9435;52.122;5.502;2023-04-03T15:05:10;5.38;;;1.33;;
18610;SDS011;9435;52.122;5.502;2023-04-03T15:07:39;3.33;;;1.00;;
18610;SDS011;9435;52.122;5.502;2023-04-03T15:10:14;5.53;;;1.33;;
18610;SDS011;9435;52.122;5.502;2023-04-03T15:12:43;3.90;;;1.38;;
18610;SDS011;9435;52.122;5.502;2023-04-03T15:15:11;4.30;;;1.30;;
18610;SDS011;9435;52.122;5.502;2023-04-03T15:17:40;5.97;;;1.27;;
18610;SDS011;9435;52.122;5.502;2023-04-03T15:20:11;4.70;;;1.33;;
18610;SDS011;9435;52.122;5.502;2023-04-03T15:22:39;3.75;;;1.30;;
18610;SDS011;9435;52.122;5.502;2023-04-03T15:25:07;3.38;;;1.23;;
18610;SDS011;9435;52.122;5.502;2023-04-03T15:27:34;2.67;;;1.10;;
18610;SDS011;9435;52.122;5.502;2023-04-03T15:30:02;5.35;;;1.25;;
18610;SDS011;9435;52.122;5.502;2023-04-03T15:32:30;4.57;;;1.25;;
18610;SDS011;9435;52.122;5.502;2023-04-03T15:35:00;2.88;;;1.20;;
18610;SDS011;9435;52.122;5.502;2023-04-03T15:37:27;5.35;;;1.48;;